Strona główna
METAR-TAF:

METAR-TAF

Lotnisko :

Albenga, Włochy

Szerokość geograficzna: 44-03N, Długość geograficzna: 008-07E, wysokość: 45 m

Aktualna obserwacja pogody

Raport powstał 38 minut temu, godzina 11:50 UTC
Wiatr 6 kt od wschód
Temperatura 14°C
Wilgotność 94%
Ciśnienie 1023 hPa
Widzialność 10 km lub więcej
Przerywane chmury na wysokości 1200 ft
Przerywane chmury na wysokości 2500 ft

METAR: LIMG 241150Z 09006KT 9999 BKN012 BKN025 14/13 Q1023

czas: 13:28 (12:28 UTC)


TAF: brakujący

Obserwacja i prognoza pogody dla ponad 4000 lotnisk (raport METAR i TAF).

Dostępne stacje oznaczono żółtymi i czerwonymi punktami na mapie.

Najedź kursorem aby zobaczyć nazwę stacji.

Kliknij aby zobaczyć obserwacje i prognozy pogody.

Aby zmienić mapę: kliknij na zielony przycisk z czarnym krzyżykiem, aby powiększyć; na zielony przycisk z myślnikiem, aby pomniejszyć; na zielone strzałki, aby przejść do map sąsiednich.


METAR-TAF: